sensor_id;sensor_type;location;lat;lon;timestamp;pressure;altitude;pressure_sealevel;temperature;humidity
9746;BME280;4912;50.836;12.958;2022-11-03T00:02:08;98405.09;;;10.16;76.80
9746;BME280;4912;50.836;12.958;2022-11-03T00:04:39;98407.59;;;10.23;76.66
9746;BME280;4912;50.836;12.958;2022-11-03T00:07:09;98400.72;;;10.28;76.19
9746;BME280;4912;50.836;12.958;2022-11-03T00:09:39;98399.63;;;10.25;75.54
9746;BME280;4912;50.836;12.958;2022-11-03T00:12:13;98388.56;;;10.25;75.83
9746;BME280;4912;50.836;12.958;2022-11-03T00:14:43;98390.09;;;10.26;75.40
9746;BME280;4912;50.836;12.958;2022-11-03T00:17:13;98402.06;;;10.23;75.67
9746;BME280;4912;50.836;12.958;2022-11-03T00:19:43;98397.44;;;10.20;75.47
9746;BME280;4912;50.836;12.958;2022-11-03T00:22:13;98391.91;;;10.20;75.18
9746;BME280;4912;50.836;12.958;2022-11-03T00:24:43;98401.88;;;10.18;75.07
9746;BME280;4912;50.836;12.958;2022-11-03T00:27:16;98409.06;;;10.15;75.08
9746;BME280;4912;50.836;12.958;2022-11-03T00:29:46;98403.31;;;10.10;75.59
9746;BME280;4912;50.836;12.958;2022-11-03T00:32:16;98411.47;;;10.13;75.57
9746;BME280;4912;50.836;12.958;2022-11-03T00:34:46;98404.53;;;10.09;75.49
9746;BME280;4912;50.836;12.958;2022-11-03T00:37:16;98406.03;;;10.01;75.50
9746;BME280;4912;50.836;12.958;2022-11-03T00:39:47;98395.03;;;9.88;76.06
9746;BME280;4912;50.836;12.958;2022-11-03T00:42:19;98401.03;;;9.74;76.83
9746;BME280;4912;50.836;12.958;2022-11-03T00:44:49;98393.53;;;9.74;76.88
9746;BME280;4912;50.836;12.958;2022-11-03T00:47:20;98390.09;;;9.83;76.46
9746;BME280;4912;50.836;12.958;2022-11-03T00:49:50;98407.09;;;9.81;76.00
9746;BME280;4912;50.836;12.958;2022-11-03T00:52:20;98394.97;;;9.66;76.03
9746;BME280;4912;50.836;12.958;2022-11-03T00:54:50;98393.16;;;9.51;76.77
9746;BME280;4912;50.836;12.958;2022-11-03T00:57:23;98388.53;;;9.48;77.13
9746;BME280;4912;50.836;12.958;2022-11-03T00:59:53;98388.97;;;9.46;77.47
9746;BME280;4912;50.836;12.958;2022-11-03T01:02:24;98385.22;;;9.53;77.95
9746;BME280;4912;50.836;12.958;2022-11-03T01:04:54;98390.16;;;9.58;78.10
9746;BME280;4912;50.836;12.958;2022-11-03T01:07:36;98385.84;;;9.57;77.67
9746;BME280;4912;50.836;12.958;2022-11-03T01:10:07;98379.56;;;9.56;77.20
9746;BME280;4912;50.836;12.958;2022-11-03T01:12:40;98391.63;;;9.50;77.47
9746;BME280;4912;50.836;12.958;2022-11-03T01:15:08;98385.44;;;9.45;77.07
9746;BME280;4912;50.836;12.958;2022-11-03T01:17:38;98380.81;;;9.42;77.10
9746;BME280;4912;50.836;12.958;2022-11-03T01:20:10;98385.25;;;9.40;77.54
9746;BME280;4912;50.836;12.958;2022-11-03T01:22:40;98374.53;;;9.42;77.55
9746;BME280;4912;50.836;12.958;2022-11-03T01:25:10;98376.06;;;9.43;78.16
9746;BME280;4912;50.836;12.958;2022-11-03T01:27:42;98368.09;;;9.45;78.63
9746;BME280;4912;50.836;12.958;2022-11-03T01:30:13;98358.72;;;9.42;78.46
9746;BME280;4912;50.836;12.958;2022-11-03T01:32:43;98354.88;;;9.40;77.55
9746;BME280;4912;50.836;12.958;2022-11-03T01:35:13;98357.41;;;9.34;77.62
9746;BME280;4912;50.836;12.958;2022-11-03T01:37:43;98356.00;;;9.30;77.73
9746;BME280;4912;50.836;12.958;2022-11-03T01:40:13;98352.47;;;9.29;77.54
9746;BME280;4912;50.836;12.958;2022-11-03T01:42:46;98357.41;;;9.34;77.89
9746;BME280;4912;50.836;12.958;2022-11-03T01:45:16;98352.22;;;9.36;78.01
9746;BME280;4912;50.836;12.958;2022-11-03T01:47:46;98348.22;;;9.37;77.84
9746;BME280;4912;50.836;12.958;2022-11-03T01:50:17;98344.59;;;9.40;77.88
9746;BME280;4912;50.836;12.958;2022-11-03T01:52:51;98329.09;;;9.43;77.59
9746;BME280;4912;50.836;12.958;2022-11-03T01:55:27;98325.56;;;9.42;77.55
9746;BME280;4912;50.836;12.958;2022-11-03T01:58:03;98330.53;;;9.48;77.40
9746;BME280;4912;50.836;12.958;2022-11-03T02:00:36;98323.13;;;9.44;77.65
9746;BME280;4912;50.836;12.958;2022-11-03T02:03:07;98315.75;;;9.41;77.71
9746;BME280;4912;50.836;12.958;2022-11-03T02:05:37;98308.03;;;9.36;77.35
9746;BME280;4912;50.836;12.958;2022-11-03T02:08:12;98296.47;;;9.29;77.46
9746;BME280;4912;50.836;12.958;2022-11-03T02:10:46;98302.66;;;9.20;76.67
9746;BME280;4912;50.836;12.958;2022-11-03T02:13:21;98293.03;;;9.25;75.02
9746;BME280;4912;50.836;12.958;2022-11-03T02:15:55;98295.56;;;9.32;74.26
9746;BME280;4912;50.836;12.958;2022-11-03T02:18:29;98288.25;;;9.38;75.01
9746;BME280;4912;50.836;12.958;2022-11-03T02:21:11;98276.91;;;9.36;74.93
9746;BME280;4912;50.836;12.958;2022-11-03T02:23:52;98276.22;;;9.32;74.74
9746;BME280;4912;50.836;12.958;2022-11-03T02:26:30;98281.75;;;9.32;74.26
9746;BME280;4912;50.836;12.958;2022-11-03T02:29:00;98280.88;;;9.35;73.79
9746;BME280;4912;50.836;12.958;2022-11-03T02:31:35;98273.66;;;9.37;73.37
9746;BME280;4912;50.836;12.958;2022-11-03T02:34:15;98268.03;;;9.41;73.05
9746;BME280;4912;50.836;12.958;2022-11-03T02:36:52;98264.81;;;9.42;73.00
9746;BME280;4912;50.836;12.958;2022-11-03T02:39:29;98257.47;;;9.49;72.96
9746;BME280;4912;50.836;12.958;2022-11-03T02:42:07;98264.13;;;9.51;73.09
9746;BME280;4912;50.836;12.958;2022-11-03T02:44:38;98264.63;;;9.59;72.69
9746;BME280;4912;50.836;12.958;2022-11-03T02:47:11;98253.06;;;9.51;72.75
9746;BME280;4912;50.836;12.958;2022-11-03T02:49:45;98239.50;;;9.44;72.87
9746;BME280;4912;50.836;12.958;2022-11-03T02:52:37;98238.72;;;9.43;73.28
9746;BME280;4912;50.836;12.958;2022-11-03T02:55:12;98239.84;;;9.46;73.16
9746;BME280;4912;50.836;12.958;2022-11-03T02:57:51;98233.69;;;9.42;73.04
9746;BME280;4912;50.836;12.958;2022-11-03T03:00:23;98234.91;;;9.41;73.25
9746;BME280;4912;50.836;12.958;2022-11-03T03:02:56;98230.25;;;9.38;73.15
9746;BME280;4912;50.836;12.958;2022-11-03T03:05:33;98232.31;;;9.47;73.43
9746;BME280;4912;50.836;12.958;2022-11-03T03:08:06;98222.81;;;9.48;73.30
9746;BME280;4912;50.836;12.958;2022-11-03T03:10:41;98222.88;;;9.57;73.20
9746;BME280;4912;50.836;12.958;2022-11-03T03:13:18;98228.56;;;9.62;72.79
9746;BME280;4912;50.836;12.958;2022-11-03T03:15:56;98225.22;;;9.67;72.81
9746;BME280;4912;50.836;12.958;2022-11-03T03:18:41;98216.16;;;9.67;72.90
9746;BME280;4912;50.836;12.958;2022-11-03T03:21:21;98226.44;;;9.66;72.80
9746;BME280;4912;50.836;12.958;2022-11-03T03:23:56;98219.84;;;9.64;72.97
9746;BME280;4912;50.836;12.958;2022-11-03T03:26:31;98219.47;;;9.53;73.49
9746;BME280;4912;50.836;12.958;2022-11-03T03:29:10;98215.72;;;9.25;73.83
9746;BME280;4912;50.836;12.958;2022-11-03T03:31:47;98215.22;;;9.17;74.29
9746;BME280;4912;50.836;12.958;2022-11-03T03:34:20;98204.78;;;9.12;73.98
9746;BME280;4912;50.836;12.958;2022-11-03T03:37:04;98198.13;;;9.10;74.00
9746;BME280;4912;50.836;12.958;2022-11-03T03:39:37;98191.47;;;8.98;74.09
9746;BME280;4912;50.836;12.958;2022-11-03T03:42:12;98192.81;;;8.93;74.37
9746;BME280;4912;50.836;12.958;2022-11-03T03:44:46;98192.59;;;8.88;74.21
9746;BME280;4912;50.836;12.958;2022-11-03T03:47:20;98180.66;;;8.91;74.01
9746;BME280;4912;50.836;12.958;2022-11-03T03:49:52;98192.03;;;8.93;73.74
9746;BME280;4912;50.836;12.958;2022-11-03T03:52:23;98190.03;;;8.93;73.45
9746;BME280;4912;50.836;12.958;2022-11-03T03:54:53;98196.09;;;9.01;72.95
9746;BME280;4912;50.836;12.958;2022-11-03T03:57:24;98180.03;;;8.87;72.80
9746;BME280;4912;50.836;12.958;2022-11-03T03:59:59;98190.03;;;8.72;72.96
9746;BME280;4912;50.836;12.958;2022-11-03T04:02:38;98171.50;;;8.59;73.35
9746;BME280;4912;50.836;12.958;2022-11-03T04:05:08;98174.56;;;8.61;73.62
9746;BME280;4912;50.836;12.958;2022-11-03T04:07:38;98169.06;;;8.61;73.32
9746;BME280;4912;50.836;12.958;2022-11-03T04:10:19;98170.94;;;8.65;72.98
9746;BME280;4912;50.836;12.958;2022-11-03T04:12:51;98169.16;;;8.71;72.86
9746;BME280;4912;50.836;12.958;2022-11-03T04:15:36;98166.59;;;8.76;72.08
9746;BME280;4912;50.836;12.958;2022-11-03T04:18:20;98159.41;;;8.79;71.35
9746;BME280;4912;50.836;12.958;2022-11-03T04:21:03;98157.81;;;8.90;70.86
9746;BME280;4912;50.836;12.958;2022-11-03T04:23:46;98164.78;;;8.95;69.64
9746;BME280;4912;50.836;12.958;2022-11-03T04:26:17;98151.47;;;9.02;69.26
9746;BME280;4912;50.836;12.958;2022-11-03T04:28:50;98142.16;;;9.09;69.08
9746;BME280;4912;50.836;12.958;2022-11-03T04:31:25;98143.31;;;9.21;68.37
9746;BME280;4912;50.836;12.958;2022-11-03T04:33:57;98141.50;;;9.27;67.78
9746;BME280;4912;50.836;12.958;2022-11-03T04:36:28;98135.72;;;9.34;67.18
9746;BME280;4912;50.836;12.958;2022-11-03T04:38:58;98116.06;;;9.32;66.78
9746;BME280;4912;50.836;12.958;2022-11-03T04:41:31;98119.19;;;9.43;66.53
9746;BME280;4912;50.836;12.958;2022-11-03T04:44:06;98123.56;;;9.53;65.92
9746;BME280;4912;50.836;12.958;2022-11-03T04:46:44;98118.53;;;9.61;65.76
9746;BME280;4912;50.836;12.958;2022-11-03T04:49:21;98124.22;;;9.66;65.08
9746;BME280;4912;50.836;12.958;2022-11-03T04:51:52;98119.97;;;9.74;64.56
9746;BME280;4912;50.836;12.958;2022-11-03T04:54:22;98121.50;;;9.75;64.16
9746;BME280;4912;50.836;12.958;2022-11-03T04:56:53;98117.38;;;9.80;64.08
9746;BME280;4912;50.836;12.958;2022-11-03T04:59:24;98119.25;;;9.83;64.20
9746;BME280;4912;50.836;12.958;2022-11-03T05:01:57;98114.00;;;9.85;64.12
9746;BME280;4912;50.836;12.958;2022-11-03T05:04:28;98111.41;;;9.91;64.09
9746;BME280;4912;50.836;12.958;2022-11-03T05:06:58;98110.38;;;9.97;64.30
9746;BME280;4912;50.836;12.958;2022-11-03T05:09:29;98109.88;;;9.90;64.38
9746;BME280;4912;50.836;12.958;2022-11-03T05:12:07;98111.56;;;9.87;64.40
9746;BME280;4912;50.836;12.958;2022-11-03T05:14:38;98104.06;;;9.88;64.21
9746;BME280;4912;50.836;12.958;2022-11-03T05:17:20;98103.44;;;9.83;64.19
9746;BME280;4912;50.836;12.958;2022-11-03T05:19:56;98092.84;;;9.82;64.52
9746;BME280;4912;50.836;12.958;2022-11-03T05:22:33;98096.97;;;9.77;64.83
9746;BME280;4912;50.836;12.958;2022-11-03T05:25:27;98088.81;;;9.74;65.52
9746;BME280;4912;50.836;12.958;2022-11-03T05:28:12;98093.59;;;9.82;65.43
9746;BME280;4912;50.836;12.958;2022-11-03T05:30:48;98090.69;;;9.86;65.64
9746;BME280;4912;50.836;12.958;2022-11-03T05:33:26;98085.59;;;9.75;66.05
9746;BME280;4912;50.836;12.958;2022-11-03T05:36:01;98079.56;;;9.68;66.88
9746;BME280;4912;50.836;12.958;2022-11-03T05:38:36;98083.44;;;9.70;67.13
9746;BME280;4912;50.836;12.958;2022-11-03T05:41:13;98085.75;;;9.72;66.91
9746;BME280;4912;50.836;12.958;2022-11-03T05:43:45;98068.56;;;9.77;67.48
9746;BME280;4912;50.836;12.958;2022-11-03T05:46:22;98078.50;;;9.65;67.58
9746;BME280;4912;50.836;12.958;2022-11-03T05:48:55;98078.50;;;9.65;68.04
9746;BME280;4912;50.836;12.958;2022-11-03T05:51:30;98066.53;;;9.68;68.18
9746;BME280;4912;50.836;12.958;2022-11-03T05:54:04;98073.31;;;9.76;68.28
9746;BME280;4912;50.836;12.958;2022-11-03T05:56:45;98066.09;;;9.79;68.28
9746;BME280;4912;50.836;12.958;2022-11-03T05:59:17;98064.44;;;9.81;68.58
9746;BME280;4912;50.836;12.958;2022-11-03T06:01:52;98057.84;;;9.88;68.81
9746;BME280;4912;50.836;12.958;2022-11-03T06:04:28;98056.63;;;9.89;69.04
9746;BME280;4912;50.836;12.958;2022-11-03T06:07:05;98055.53;;;9.86;69.06
9746;BME280;4912;50.836;12.958;2022-11-03T06:09:45;98051.53;;;9.88;69.12
9746;BME280;4912;50.836;12.958;2022-11-03T06:12:18;98050.94;;;9.93;68.94
9746;BME280;4912;50.836;12.958;2022-11-03T06:14:50;98048.50;;;9.95;69.22
9746;BME280;4912;50.836;12.958;2022-11-03T06:17:21;98055.25;;;10.03;68.89
9746;BME280;4912;50.836;12.958;2022-11-03T06:19:56;98047.13;;;10.08;68.81
9746;BME280;4912;50.836;12.958;2022-11-03T06:22:29;98057.56;;;10.13;68.65
9746;BME280;4912;50.836;12.958;2022-11-03T06:25:11;98053.56;;;10.14;68.07
9746;BME280;4912;50.836;12.958;2022-11-03T06:27:48;98052.25;;;10.19;68.00
9746;BME280;4912;50.836;12.958;2022-11-03T06:30:20;98044.41;;;10.17;68.53
9746;BME280;4912;50.836;12.958;2022-11-03T06:32:56;98055.63;;;10.23;67.94
9746;BME280;4912;50.836;12.958;2022-11-03T06:35:30;98050.88;;;10.23;67.86
9746;BME280;4912;50.836;12.958;2022-11-03T06:38:00;98057.63;;;10.22;67.82
9746;BME280;4912;50.836;12.958;2022-11-03T06:40:34;98040.41;;;10.27;67.21
9746;BME280;4912;50.836;12.958;2022-11-03T06:43:20;98039.31;;;10.16;67.01
9746;BME280;4912;50.836;12.958;2022-11-03T06:45:53;98043.63;;;10.17;67.39
9746;BME280;4912;50.836;12.958;2022-11-03T06:48:26;98030.28;;;10.43;67.17
9746;BME280;4912;50.836;12.958;2022-11-03T06:51:00;98032.75;;;10.59;67.31
9746;BME280;4912;50.836;12.958;2022-11-03T06:53:31;98029.63;;;10.75;67.74
9746;BME280;4912;50.836;12.958;2022-11-03T06:56:08;98031.78;;;10.89;66.71
9746;BME280;4912;50.836;12.958;2022-11-03T06:58:41;98024.66;;;11.06;66.76
9746;BME280;4912;50.836;12.958;2022-11-03T07:01:14;98021.22;;;11.21;66.18
9746;BME280;4912;50.836;12.958;2022-11-03T07:03:48;98022.44;;;11.29;64.22
9746;BME280;4912;50.836;12.958;2022-11-03T07:06:24;98014.00;;;11.56;63.56
9746;BME280;4912;50.836;12.958;2022-11-03T07:08:59;98010.03;;;11.48;63.25
9746;BME280;4912;50.836;12.958;2022-11-03T07:11:33;98020.25;;;11.75;63.07
9746;BME280;4912;50.836;12.958;2022-11-03T07:14:10;98024.69;;;11.81;62.39
9746;BME280;4912;50.836;12.958;2022-11-03T07:16:44;98025.97;;;12.19;61.95
9746;BME280;4912;50.836;12.958;2022-11-03T07:19:18;98020.00;;;12.35;60.57
9746;BME280;4912;50.836;12.958;2022-11-03T07:21:53;98024.91;;;12.55;60.14
9746;BME280;4912;50.836;12.958;2022-11-03T07:24:27;98018.41;;;12.72;59.83
9746;BME280;4912;50.836;12.958;2022-11-03T07:27:09;98011.63;;;12.73;59.22
9746;BME280;4912;50.836;12.958;2022-11-03T07:29:44;98007.63;;;12.75;59.43
9746;BME280;4912;50.836;12.958;2022-11-03T07:32:17;98006.00;;;12.97;59.47
9746;BME280;4912;50.836;12.958;2022-11-03T07:34:52;98005.22;;;12.97;59.15
9746;BME280;4912;50.836;12.958;2022-11-03T07:37:25;98010.22;;;13.07;58.84
9746;BME280;4912;50.836;12.958;2022-11-03T07:39:56;98005.81;;;13.01;58.56
9746;BME280;4912;50.836;12.958;2022-11-03T07:42:27;98002.75;;;12.99;58.84
9746;BME280;4912;50.836;12.958;2022-11-03T07:44:59;98003.69;;;12.81;59.53
9746;BME280;4912;50.836;12.958;2022-11-03T07:47:29;98000.72;;;12.85;59.72
9746;BME280;4912;50.836;12.958;2022-11-03T07:50:00;97998.81;;;13.05;59.56
9746;BME280;4912;50.836;12.958;2022-11-03T07:52:35;97992.13;;;13.12;59.14
9746;BME280;4912;50.836;12.958;2022-11-03T07:55:10;97991.25;;;13.35;58.63
9746;BME280;4912;50.836;12.958;2022-11-03T07:57:41;97989.25;;;13.56;57.92
9746;BME280;4912;50.836;12.958;2022-11-03T08:00:13;97981.72;;;13.77;57.05
9746;BME280;4912;50.836;12.958;2022-11-03T08:02:49;97968.44;;;13.86;56.82
9746;BME280;4912;50.836;12.958;2022-11-03T08:05:23;97974.34;;;14.14;56.20
9746;BME280;4912;50.836;12.958;2022-11-03T08:07:56;97971.38;;;14.18;55.85
9746;BME280;4912;50.836;12.958;2022-11-03T08:10:26;97964.00;;;14.61;54.50
9746;BME280;4912;50.836;12.958;2022-11-03T08:12:56;97959.47;;;15.21;52.92
9746;BME280;4912;50.836;12.958;2022-11-03T08:15:26;97956.84;;;15.80;50.88
9746;BME280;4912;50.836;12.958;2022-11-03T08:17:57;97955.56;;;16.40;48.85
9746;BME280;4912;50.836;12.958;2022-11-03T08:20:27;97939.66;;;16.91;47.08
9746;BME280;4912;50.836;12.958;2022-11-03T08:22:59;97944.47;;;17.46;45.90
9746;BME280;4912;50.836;12.958;2022-11-03T08:25:50;97929.94;;;17.70;44.87
9746;BME280;4912;50.836;12.958;2022-11-03T08:28:20;97932.53;;;17.17;45.66
9746;BME280;4912;50.836;12.958;2022-11-03T08:30:50;97932.50;;;16.62;47.31
9746;BME280;4912;50.836;12.958;2022-11-03T08:33:20;97934.25;;;16.48;48.04
9746;BME280;4912;50.836;12.958;2022-11-03T08:35:51;97918.59;;;15.97;48.92
9746;BME280;4912;50.836;12.958;2022-11-03T08:38:24;97921.81;;;15.79;49.51
9746;BME280;4912;50.836;12.958;2022-11-03T08:40:54;97920.13;;;15.92;49.62
9746;BME280;4912;50.836;12.958;2022-11-03T08:43:25;97904.53;;;16.51;48.03
9746;BME280;4912;50.836;12.958;2022-11-03T08:45:55;97903.75;;;16.39;48.29
9746;BME280;4912;50.836;12.958;2022-11-03T08:48:38;97903.78;;;16.50;48.25
9746;BME280;4912;50.836;12.958;2022-11-03T08:51:09;97906.03;;;16.29;47.89
9746;BME280;4912;50.836;12.958;2022-11-03T08:53:42;97906.06;;;16.57;47.57
9746;BME280;4912;50.836;12.958;2022-11-03T08:56:16;97898.75;;;16.88;46.85
9746;BME280;4912;50.836;12.958;2022-11-03T08:58:48;97887.47;;;17.54;46.31
9746;BME280;4912;50.836;12.958;2022-11-03T09:01:19;97887.94;;;17.75;45.05
9746;BME280;4912;50.836;12.958;2022-11-03T09:03:49;97888.66;;;17.87;44.29
9746;BME280;4912;50.836;12.958;2022-11-03T09:06:19;97886.84;;;17.95;43.87
9746;BME280;4912;50.836;12.958;2022-11-03T09:08:52;97880.66;;;18.13;43.50
9746;BME280;4912;50.836;12.958;2022-11-03T09:11:42;97867.69;;;18.05;44.34
9746;BME280;4912;50.836;12.958;2022-11-03T09:14:12;97861.53;;;18.58;43.02
9746;BME280;4912;50.836;12.958;2022-11-03T09:16:43;97859.41;;;18.70;42.61
9746;BME280;4912;50.836;12.958;2022-11-03T09:19:13;97859.50;;;18.59;43.35
9746;BME280;4912;50.836;12.958;2022-11-03T09:21:43;97857.38;;;18.70;42.95
9746;BME280;4912;50.836;12.958;2022-11-03T09:24:16;97852.00;;;18.72;43.17
9746;BME280;4912;50.836;12.958;2022-11-03T09:26:46;97846.81;;;18.82;43.30
9746;BME280;4912;50.836;12.958;2022-11-03T09:29:16;97848.34;;;18.48;42.63
9746;BME280;4912;50.836;12.958;2022-11-03T09:31:47;97848.56;;;18.55;43.18
9746;BME280;4912;50.836;12.958;2022-11-03T09:34:17;97852.06;;;18.67;42.95
9746;BME280;4912;50.836;12.958;2022-11-03T09:36:47;97842.53;;;18.75;42.91
9746;BME280;4912;50.836;12.958;2022-11-03T09:39:21;97830.19;;;18.60;43.17
9746;BME280;4912;50.836;12.958;2022-11-03T09:41:52;97826.53;;;18.70;43.55
9746;BME280;4912;50.836;12.958;2022-11-03T09:44:25;97821.63;;;18.76;44.02
9746;BME280;4912;50.836;12.958;2022-11-03T09:46:55;97826.91;;;18.56;43.89
9746;BME280;4912;50.836;12.958;2022-11-03T09:49:27;97819.09;;;18.78;43.92
9746;BME280;4912;50.836;12.958;2022-11-03T09:51:58;97813.38;;;18.90;43.47
9746;BME280;4912;50.836;12.958;2022-11-03T09:54:30;97810.47;;;18.71;43.60
9746;BME280;4912;50.836;12.958;2022-11-03T09:57:08;97808.06;;;18.51;43.60
9746;BME280;4912;50.836;12.958;2022-11-03T09:59:42;97812.06;;;18.66;43.87
9746;BME280;4912;50.836;12.958;2022-11-03T10:02:19;97800.38;;;18.87;42.99
9746;BME280;4912;50.836;12.958;2022-11-03T10:04:53;97792.88;;;19.00;42.71
9746;BME280;4912;50.836;12.958;2022-11-03T10:07:27;97796.72;;;19.21;42.88
9746;BME280;4912;50.836;12.958;2022-11-03T10:10:01;97789.47;;;19.32;43.04
9746;BME280;4912;50.836;12.958;2022-11-03T10:12:35;97792.69;;;18.93;43.20
9746;BME280;4912;50.836;12.958;2022-11-03T10:15:12;97809.72;;;18.35;43.61
9746;BME280;4912;50.836;12.958;2022-11-03T10:17:44;97794.28;;;17.82;44.80
9746;BME280;4912;50.836;12.958;2022-11-03T10:20:18;97799.09;;;17.18;46.50
9746;BME280;4912;50.836;12.958;2022-11-03T10:22:51;97775.28;;;16.95;47.46
9746;BME280;4912;50.836;12.958;2022-11-03T10:25:34;97761.25;;;17.11;47.41
9746;BME280;4912;50.836;12.958;2022-11-03T10:28:17;97759.13;;;17.34;46.62
9746;BME280;4912;50.836;12.958;2022-11-03T10:30:53;97755.41;;;17.73;45.73
9746;BME280;4912;50.836;12.958;2022-11-03T10:33:41;97740.38;;;18.11;44.65
9746;BME280;4912;50.836;12.958;2022-11-03T10:36:23;97734.69;;;18.82;43.01
9746;BME280;4912;50.836;12.958;2022-11-03T10:38:55;97724.03;;;18.99;42.73
9746;BME280;4912;50.836;12.958;2022-11-03T10:41:30;97725.28;;;19.47;41.42
9746;BME280;4912;50.836;12.958;2022-11-03T10:44:03;97714.22;;;19.73;40.77
9746;BME280;4912;50.836;12.958;2022-11-03T10:46:35;97708.63;;;19.86;39.98
9746;BME280;4912;50.836;12.958;2022-11-03T10:49:21;97696.63;;;20.36;39.93
9746;BME280;4912;50.836;12.958;2022-11-03T10:51:52;97709.78;;;20.10;39.42
9746;BME280;4912;50.836;12.958;2022-11-03T10:54:23;97692.88;;;19.83;40.47
9746;BME280;4912;50.836;12.958;2022-11-03T10:56:56;97690.63;;;20.27;40.08
9746;BME280;4912;50.836;12.958;2022-11-03T10:59:30;97682.28;;;20.93;38.21
9746;BME280;4912;50.836;12.958;2022-11-03T11:02:10;97674.25;;;21.10;37.46
9746;BME280;4912;50.836;12.958;2022-11-03T11:04:46;97662.91;;;21.29;36.95
9746;BME280;4912;50.836;12.958;2022-11-03T11:07:20;97653.78;;;21.70;36.78
9746;BME280;4912;50.836;12.958;2022-11-03T11:09:52;97653.66;;;21.75;36.59
9746;BME280;4912;50.836;12.958;2022-11-03T11:12:26;97646.63;;;22.23;35.87
9746;BME280;4912;50.836;12.958;2022-11-03T11:14:57;97648.41;;;22.62;34.69
9746;BME280;4912;50.836;12.958;2022-11-03T11:17:39;97637.75;;;23.04;34.35
9746;BME280;4912;50.836;12.958;2022-11-03T11:20:32;97637.94;;;23.42;33.30
9746;BME280;4912;50.836;12.958;2022-11-03T11:26:39;97633.53;;;23.92;32.44
9746;BME280;4912;50.836;12.958;2022-11-03T11:29:40;97621.88;;;24.34;31.76
9746;BME280;4912;50.836;12.958;2022-11-03T11:38:55;97616.78;;;24.55;31.93
9746;BME280;4912;50.836;12.958;2022-11-03T11:44:58;97602.81;;;23.66;32.92
9746;BME280;4912;50.836;12.958;2022-11-03T11:47:40;97596.47;;;23.30;33.51
9746;BME280;4912;50.836;12.958;2022-11-03T11:50:26;97586.72;;;23.38;33.89
9746;BME280;4912;50.836;12.958;2022-11-03T11:53:10;97581.00;;;23.23;34.31
9746;BME280;4912;50.836;12.958;2022-11-03T11:55:45;97572.94;;;22.76;34.12
9746;BME280;4912;50.836;12.958;2022-11-03T11:58:36;97579.53;;;22.78;34.39
9746;BME280;4912;50.836;12.958;2022-11-03T12:01:25;97573.97;;;23.60;33.49
9746;BME280;4912;50.836;12.958;2022-11-03T12:04:01;97570.94;;;24.64;31.74
9746;BME280;4912;50.836;12.958;2022-11-03T12:06:37;97567.41;;;25.76;30.62
9746;BME280;4912;50.836;12.958;2022-11-03T12:09:15;97566.59;;;26.33;29.22
9746;BME280;4912;50.836;12.958;2022-11-03T12:11:48;97561.97;;;26.20;29.15
9746;BME280;4912;50.836;12.958;2022-11-03T12:14:24;97562.72;;;25.96;29.53
9746;BME280;4912;50.836;12.958;2022-11-03T12:16:58;97552.00;;;25.87;29.52
9746;BME280;4912;50.836;12.958;2022-11-03T12:19:49;97539.91;;;25.86;30.21
9746;BME280;4912;50.836;12.958;2022-11-03T12:22:38;97537.69;;;25.85;30.25
9746;BME280;4912;50.836;12.958;2022-11-03T12:25:34;97533.19;;;25.99;29.52
9746;BME280;4912;50.836;12.958;2022-11-03T12:28:06;97542.66;;;26.43;29.05
9746;BME280;4912;50.836;12.958;2022-11-03T12:30:36;97536.81;;;26.17;28.55
9746;BME280;4912;50.836;12.958;2022-11-03T12:33:09;97527.13;;;26.62;28.07
9746;BME280;4912;50.836;12.958;2022-11-03T12:35:39;97520.97;;;26.56;28.54
9746;BME280;4912;50.836;12.958;2022-11-03T12:38:09;97521.06;;;25.81;28.99
9746;BME280;4912;50.836;12.958;2022-11-03T12:40:39;97516.81;;;25.73;29.44
9746;BME280;4912;50.836;12.958;2022-11-03T12:43:09;97510.63;;;25.34;29.91
9746;BME280;4912;50.836;12.958;2022-11-03T12:45:39;97489.16;;;25.23;29.98
9746;BME280;4912;50.836;12.958;2022-11-03T12:48:12;97481.16;;;25.05;30.39
9746;BME280;4912;50.836;12.958;2022-11-03T12:50:42;97478.44;;;24.74;30.62
9746;BME280;4912;50.836;12.958;2022-11-03T12:53:12;97475.16;;;25.01;30.65
9746;BME280;4912;50.836;12.958;2022-11-03T12:55:42;97462.94;;;24.91;31.40
9746;BME280;4912;50.836;12.958;2022-11-03T12:58:13;97448.16;;;23.82;32.82
9746;BME280;4912;50.836;12.958;2022-11-03T13:00:43;97450.03;;;23.18;33.67
9746;BME280;4912;50.836;12.958;2022-11-03T13:03:23;97443.47;;;22.21;35.33
9746;BME280;4912;50.836;12.958;2022-11-03T13:05:53;97442.72;;;21.92;36.37
9746;BME280;4912;50.836;12.958;2022-11-03T13:08:24;97435.16;;;21.31;37.11
9746;BME280;4912;50.836;12.958;2022-11-03T13:10:54;97427.75;;;20.86;38.23
9746;BME280;4912;50.836;12.958;2022-11-03T13:13:24;97416.94;;;20.56;39.04
9746;BME280;4912;50.836;12.958;2022-11-03T13:15:55;97419.09;;;20.63;39.24
9746;BME280;4912;50.836;12.958;2022-11-03T13:18:28;97412.88;;;20.44;39.59
9746;BME280;4912;50.836;12.958;2022-11-03T13:20:58;97411.63;;;20.19;40.36
9746;BME280;4912;50.836;12.958;2022-11-03T13:23:28;97402.97;;;20.17;40.50
9746;BME280;4912;50.836;12.958;2022-11-03T13:25:58;97395.72;;;20.21;40.38
9746;BME280;4912;50.836;12.958;2022-11-03T13:28:28;97376.53;;;20.80;39.84
9746;BME280;4912;50.836;12.958;2022-11-03T13:30:59;97381.94;;;21.40;39.16
9746;BME280;4912;50.836;12.958;2022-11-03T13:33:31;97371.09;;;21.73;37.96
9746;BME280;4912;50.836;12.958;2022-11-03T13:36:02;97371.91;;;22.24;36.87
9746;BME280;4912;50.836;12.958;2022-11-03T13:38:32;97374.66;;;22.60;36.02
9746;BME280;4912;50.836;12.958;2022-11-03T13:41:02;97382.19;;;22.65;35.68
9746;BME280;4912;50.836;12.958;2022-11-03T13:43:35;97374.94;;;22.26;36.00
9746;BME280;4912;50.836;12.958;2022-11-03T13:46:05;97374.59;;;22.37;36.33
9746;BME280;4912;50.836;12.958;2022-11-03T13:48:38;97363.16;;;22.51;36.10
9746;BME280;4912;50.836;12.958;2022-11-03T13:51:28;97363.84;;;21.92;36.94
9746;BME280;4912;50.836;12.958;2022-11-03T13:53:58;97360.84;;;21.54;37.42
9746;BME280;4912;50.836;12.958;2022-11-03T13:56:48;97359.44;;;20.99;38.21
9746;BME280;4912;50.836;12.958;2022-11-03T13:59:38;97345.38;;;20.57;39.26
9746;BME280;4912;50.836;12.958;2022-11-03T14:02:09;97342.59;;;20.44;39.64
9746;BME280;4912;50.836;12.958;2022-11-03T14:05:03;97332.28;;;20.26;40.43
9746;BME280;4912;50.836;12.958;2022-11-03T14:07:37;97329.31;;;20.11;40.63